Time;durP1;ratioP1;P1;durP2;ratioP2;P2;SDS_P1;SDS_P2;PMS_P1;PMS_P2;Temp;Humidity;BMP_temperature;BMP_pressure;BME280_temperature;BME280_humidity;BME280_pressure;Samples;Min_cycle;Max_cycle;Signal;HPM_P1;HPM_P2
2022/03/01 00:01:55;;;;;;;5.05;3.33;;;;;;;13.26;28.98;97520.38;5033608;28;20133;-28
2022/03/01 00:04:21;;;;;;;4.35;2.60;;;;;;;13.27;29.21;97526.59;5034185;28;20029;-27
2022/03/01 00:06:47;;;;;;;5.20;2.53;;;;;;;13.19;29.19;97515.06;5034228;28;20025;-28
2022/03/01 00:09:12;;;;;;;4.03;2.45;;;;;;;13.28;29.17;97517.22;5034311;28;20068;-27
2022/03/01 00:11:38;;;;;;;4.43;2.50;;;;;;;13.30;29.10;97520.31;5034200;28;20465;-27
2022/03/01 00:14:06;;;;;;;5.00;2.65;;;;;;;13.25;29.35;97513.38;5033987;28;20097;-27
2022/03/01 00:16:32;;;;;;;4.93;2.53;;;;;;;13.16;28.90;97518.59;5033961;28;20025;-27
2022/03/01 00:18:58;;;;;;;5.22;2.67;;;;;;;13.20;29.12;97524.78;5033979;28;20065;-27
2022/03/01 00:21:24;;;;;;;5.32;2.63;;;;;;;13.11;29.53;97532.66;5033851;28;20044;-28
2022/03/01 00:23:50;;;;;;;5.18;2.58;;;;;;;13.10;29.47;97550.22;5033847;28;20021;-27
2022/03/01 00:26:16;;;;;;;5.13;2.80;;;;;;;13.14;29.59;97550.94;5033523;28;20025;-27
2022/03/01 00:28:42;;;;;;;4.47;2.53;;;;;;;13.21;29.32;97556.28;5033697;28;20544;-28
2022/03/01 00:31:08;;;;;;;4.53;2.70;;;;;;;13.35;29.43;97554.50;5033764;28;20128;-27
2022/03/01 00:33:33;;;;;;;5.57;2.72;;;;;;;13.24;29.40;97549.97;5033770;28;20096;-27
2022/03/01 00:36:00;;;;;;;3.75;2.42;;;;;;;13.10;29.35;97538.56;5033549;28;20120;-27
2022/03/01 00:38:26;;;;;;;4.47;2.40;;;;;;;13.17;29.42;97561.00;5033649;28;20497;-28
2022/03/01 00:40:51;;;;;;;3.58;2.25;;;;;;;13.25;28.99;97546.06;5033829;28;20029;-27
2022/03/01 00:43:17;;;;;;;5.15;2.88;;;;;;;13.13;29.50;97554.03;5033577;28;20021;-27
2022/03/01 00:45:42;;;;;;;3.33;2.38;;;;;;;13.17;28.79;97550.13;5033772;28;20394;-28
2022/03/01 00:48:09;;;;;;;4.65;2.50;;;;;;;13.24;28.99;97546.47;5033289;28;20025;-27
2022/03/01 00:50:34;;;;;;;4.65;2.13;;;;;;;13.27;28.88;97559.28;5033340;28;20083;-27
2022/03/01 00:53:00;;;;;;;3.60;2.25;;;;;;;13.18;28.95;97548.94;5032182;28;20151;-27
2022/03/01 00:55:26;;;;;;;3.33;2.42;;;;;;;13.23;28.47;97559.34;5032487;28;20029;-27
2022/03/01 00:57:52;;;;;;;5.05;2.47;;;;;;;13.25;28.60;97558.91;5033383;28;20029;-27
2022/03/01 01:00:18;;;;;;;3.63;2.28;;;;;;;13.25;28.63;97556.19;5033175;28;20417;-28
2022/03/01 01:02:43;;;;;;;5.40;2.38;;;;;;;13.24;28.64;97544.53;5033127;28;20120;-27
2022/03/01 01:05:09;;;;;;;4.00;2.20;;;;;;;13.18;28.94;97543.47;5030959;28;20398;-27
2022/03/01 01:07:35;;;;;;;4.85;2.30;;;;;;;13.18;29.10;97540.75;5031860;28;20025;-27
2022/03/01 01:10:01;;;;;;;3.47;2.17;;;;;;;13.25;28.50;97540.63;5032030;28;20029;-27
2022/03/01 01:12:27;;;;;;;4.65;2.30;;;;;;;13.11;28.58;97532.66;5033210;28;20032;-27
2022/03/01 01:14:52;;;;;;;5.32;2.50;;;;;;;13.06;28.72;97532.38;5031951;28;20107;-27
2022/03/01 01:17:18;;;;;;;6.25;2.30;;;;;;;13.07;28.60;97531.22;5033281;28;20080;-27
2022/03/01 01:19:44;;;;;;;3.05;2.22;;;;;;;13.06;28.88;97524.22;5033240;28;20022;-27
2022/03/01 01:24:53;;;;;;;4.28;2.53;;;;;;;13.13;28.65;97543.91;5033047;28;20028;-27
2022/03/01 01:27:19;;;;;;;4.57;2.45;;;;;;;13.21;28.29;97550.81;5031914;28;20381;-27
2022/03/01 01:29:44;;;;;;;3.88;2.03;;;;;;;13.20;28.44;97541.13;5032949;28;20491;-27
2022/03/01 01:32:10;;;;;;;4.53;2.60;;;;;;;13.18;28.61;97550.88;5032962;28;20028;-28
2022/03/01 01:34:36;;;;;;;4.80;2.75;;;;;;;13.21;28.89;97534.47;5033178;28;20018;-27
2022/03/01 01:37:01;;;;;;;5.32;2.45;;;;;;;13.19;28.55;97539.56;5033130;28;20379;-28
2022/03/01 01:39:27;;;;;;;4.30;2.45;;;;;;;13.00;28.93;97540.25;5033333;28;20038;-27
2022/03/01 01:41:53;;;;;;;5.22;2.42;;;;;;;12.94;28.70;97541.94;5033304;28;20388;-28
2022/03/01 01:44:18;;;;;;;4.25;2.53;;;;;;;12.98;28.76;97537.19;5033850;28;20040;-27
2022/03/01 01:46:44;;;;;;;4.03;2.53;;;;;;;12.92;29.18;97527.94;5035551;28;20021;-27
2022/03/01 01:49:09;;;;;;;5.00;2.55;;;;;;;12.98;28.94;97537.19;5036838;28;20433;-27
2022/03/01 01:51:35;;;;;;;4.53;2.55;;;;;;;12.94;29.13;97525.59;5036591;28;20104;-27
2022/03/01 01:54:01;;;;;;;7.57;2.72;;;;;;;12.84;29.64;97529.25;5036813;28;20026;-28
2022/03/01 01:56:26;;;;;;;4.53;2.88;;;;;;;13.01;28.77;97538.31;5036581;28;20025;-27
2022/03/01 01:58:52;;;;;;;4.38;2.50;;;;;;;13.03;29.02;97544.09;5036749;28;20474;-28
2022/03/01 02:01:18;;;;;;;3.30;1.98;;;;;;;13.02;28.85;97535.16;5035074;28;20041;-27
2022/03/01 02:03:44;;;;;;;5.03;2.40;;;;;;;13.09;29.08;97534.28;5036478;28;20033;-28
2022/03/01 02:06:09;;;;;;;6.30;2.70;;;;;;;13.12;29.02;97536.16;5036391;28;20470;-27
2022/03/01 02:08:35;;;;;;;4.03;2.53;;;;;;;13.07;29.01;97545.59;5036332;28;20108;-28
2022/03/01 02:11:01;;;;;;;3.85;2.40;;;;;;;13.07;28.92;97564.66;5036489;28;20026;-27
2022/03/01 02:13:27;;;;;;;4.78;2.33;;;;;;;13.12;29.07;97564.16;5036152;28;20025;-27
2022/03/01 02:15:55;;;;;;;4.18;2.45;;;;;;;13.15;28.78;97568.06;5036294;28;20072;-28
2022/03/01 02:18:21;;;;;;;3.38;2.17;;;;;;;13.15;29.03;97555.19;5036168;28;20029;-27
2022/03/01 02:20:46;;;;;;;4.28;2.65;;;;;;;13.08;29.24;97552.59;5036074;28;20382;-26
2022/03/01 02:23:12;;;;;;;5.05;2.80;;;;;;;13.07;29.25;97556.50;5036057;28;20025;-27
2022/03/01 02:25:38;;;;;;;2.90;2.05;;;;;;;13.15;28.95;97560.66;5036115;28;20448;-30
2022/03/01 02:28:05;;;;;;;3.47;2.22;;;;;;;13.10;29.29;97561.13;5035888;28;20021;-27
2022/03/01 02:30:31;;;;;;;5.40;2.63;;;;;;;13.11;29.28;97562.63;5035984;28;20049;-27
2022/03/01 02:32:57;;;;;;;5.95;3.13;;;;;;;13.12;29.42;97553.28;5036101;28;20036;-27
2022/03/01 02:35:23;;;;;;;4.75;2.50;;;;;;;13.10;29.31;97554.91;5035798;28;20029;-28
2022/03/01 02:37:49;;;;;;;4.38;2.72;;;;;;;13.08;28.88;97558.03;5035867;28;20458;-27
2022/03/01 02:40:15;;;;;;;3.95;2.60;;;;;;;13.07;28.96;97561.94;5036089;28;20049;-27
2022/03/01 02:42:43;;;;;;;6.07;3.05;;;;;;;13.18;29.22;97554.38;5035801;28;20032;-27
2022/03/01 02:45:11;;;;;;;6.25;2.70;;;;;;;13.13;29.30;97543.16;5035721;28;20029;-26
2022/03/01 02:47:37;;;;;;;4.18;2.17;;;;;;;13.04;29.07;97557.31;5035948;28;20025;-27
2022/03/01 02:50:03;;;;;;;4.32;2.30;;;;;;;13.12;29.10;97545.09;5035617;28;20029;-27
2022/03/01 02:52:29;;;;;;;4.20;2.28;;;;;;;13.12;29.28;97549.78;5035627;28;20068;-27
2022/03/01 02:54:54;;;;;;;4.65;2.50;;;;;;;13.13;29.19;97552.09;5035057;28;20049;-27
2022/03/01 02:57:20;;;;;;;4.80;2.58;;;;;;;13.21;29.05;97547.34;5035510;28;20032;-27
2022/03/01 02:59:45;;;;;;;5.18;2.42;;;;;;;13.02;29.28;97539.84;5035375;28;20470;-26
2022/03/01 03:02:15;;;;;;;4.63;2.47;;;;;;;13.02;29.18;97540.59;5035190;28;20049;-27
2022/03/01 03:04:41;;;;;;;5.30;2.60;;;;;;;12.87;29.54;97531.13;5035366;28;20025;-27
2022/03/01 03:07:07;;;;;;;5.57;2.95;;;;;;;12.93;29.01;97538.44;5035429;28;20025;-28
2022/03/01 03:09:34;;;;;;;4.32;2.55;;;;;;;13.00;29.50;97545.69;5035349;28;20113;-27
2022/03/01 03:11:59;;;;;;;4.90;2.97;;;;;;;12.99;29.19;97544.16;5035225;28;20021;-27
2022/03/01 03:14:25;;;;;;;6.05;2.67;;;;;;;13.07;29.32;97542.88;5035170;28;20066;-27
2022/03/01 03:16:50;;;;;;;5.25;2.53;;;;;;;13.03;29.42;97544.88;5035290;28;20471;-29
2022/03/01 03:19:16;;;;;;;4.78;2.60;;;;;;;13.00;29.30;97545.69;5035269;28;20026;-27
2022/03/01 03:21:46;;;;;;;5.00;2.95;;;;;;;13.02;29.53;97548.78;5035147;28;20076;-27
2022/03/01 03:24:12;;;;;;;5.03;2.60;;;;;;;13.00;29.57;97545.69;5034902;28;20037;-27
2022/03/01 03:26:38;;;;;;;4.82;2.85;;;;;;;13.01;29.20;97547.25;5035162;28;20029;-28
2022/03/01 03:29:05;;;;;;;5.72;2.75;;;;;;;12.98;29.46;97544.59;5035012;28;20103;-27
2022/03/01 03:31:31;;;;;;;5.15;2.70;;;;;;;13.06;29.13;97551.44;5034690;28;20028;-29
2022/03/01 03:33:56;;;;;;;4.10;2.60;;;;;;;12.97;29.23;97557.44;5034788;28;20025;-27
2022/03/01 03:36:22;;;;;;;7.35;2.60;;;;;;;13.08;29.30;97552.59;5035001;28;20379;-26
2022/03/01 03:38:47;;;;;;;5.18;2.50;;;;;;;13.10;29.53;97569.28;5034615;28;20025;-27
2022/03/01 03:41:13;;;;;;;6.10;2.97;;;;;;;13.00;29.76;97567.47;5034719;28;20406;-27
2022/03/01 03:43:39;;;;;;;3.72;2.40;;;;;;;13.07;29.33;97572.81;5034603;28;20035;-27
2022/03/01 03:46:04;;;;;;;5.25;2.53;;;;;;;12.99;29.69;97568.66;5034739;28;20103;-28
2022/03/01 03:48:30;;;;;;;4.82;2.55;;;;;;;13.05;29.71;97566.25;5034492;28;20032;-27
2022/03/01 03:50:55;;;;;;;3.85;2.42;;;;;;;12.98;29.48;97558.97;5034378;28;20108;-28
2022/03/01 03:53:21;;;;;;;5.07;2.65;;;;;;;12.95;29.94;97562.53;5034546;28;20049;-29
2022/03/01 03:55:47;;;;;;;5.75;2.50;;;;;;;13.10;29.77;97565.78;5034476;28;20030;-27
2022/03/01 03:58:12;;;;;;;3.72;2.40;;;;;;;13.00;29.49;97578.38;5034405;28;20033;-27
2022/03/01 04:00:38;;;;;;;4.20;2.75;;;;;;;12.72;30.16;97570.69;5034292;28;20045;-27
2022/03/01 04:03:03;;;;;;;3.40;2.28;;;;;;;12.81;29.94;97568.19;5034580;28;20025;-27
2022/03/01 04:05:29;;;;;;;4.38;2.67;;;;;;;13.00;30.21;97566.72;5032933;28;20104;-28
2022/03/01 04:07:55;;;;;;;5.20;2.75;;;;;;;12.88;30.00;97560.66;5033399;28;20022;-27
2022/03/01 04:10:21;;;;;;;4.57;2.75;;;;;;;12.87;29.97;97563.81;5033994;28;20040;-28
2022/03/01 04:12:46;;;;;;;6.32;2.50;;;;;;;12.94;30.11;97567.19;5034094;28;20078;-27
2022/03/01 04:15:12;;;;;;;3.65;2.42;;;;;;;13.01;30.08;97574.47;5033994;28;20025;-27
2022/03/01 04:17:40;;;;;;;5.82;2.38;;;;;;;13.01;30.02;97568.25;5034066;28;20110;-27
2022/03/01 04:20:06;;;;;;;2.83;2.08;;;;;;;13.05;30.04;97575.19;5034127;28;20018;-27
2022/03/01 04:22:32;;;;;;;4.10;2.50;;;;;;;13.04;30.30;97572.88;5034115;28;20037;-27
2022/03/01 04:24:57;;;;;;;5.35;2.65;;;;;;;12.90;30.05;97574.66;5033560;28;20029;-27
2022/03/01 04:27:24;;;;;;;4.68;2.28;;;;;;;13.05;30.26;97568.97;5033898;28;20033;-28
2022/03/01 04:29:50;;;;;;;4.82;2.40;;;;;;;12.92;30.40;97566.84;5033843;28;20122;-27
2022/03/01 04:32:16;;;;;;;6.22;2.40;;;;;;;12.92;30.07;97560.63;5033774;28;20053;-29
2022/03/01 04:34:41;;;;;;;5.53;2.60;;;;;;;12.83;30.33;97566.59;5033661;28;20045;-27
2022/03/01 04:37:08;;;;;;;6.38;2.55;;;;;;;12.86;30.49;97551.38;5033706;28;20025;-27
2022/03/01 04:39:34;;;;;;;4.10;2.53;;;;;;;12.89;30.53;97553.28;5033667;28;20375;-27
2022/03/01 04:42:00;;;;;;;4.47;2.58;;;;;;;12.90;30.65;97546.66;5033455;28;20017;-28
2022/03/01 04:44:26;;;;;;;6.05;2.75;;;;;;;12.94;30.16;97539.97;5033934;28;20125;-27
2022/03/01 04:46:52;;;;;;;5.40;2.67;;;;;;;12.98;30.11;97545.38;5033795;28;20029;-28
2022/03/01 04:49:17;;;;;;;5.53;2.20;;;;;;;12.67;30.64;97543.91;5033553;28;20402;-27
2022/03/01 04:51:43;;;;;;;3.65;2.55;;;;;;;12.76;30.46;97536.00;5033285;28;20081;-29
2022/03/01 04:54:09;;;;;;;4.57;2.53;;;;;;;12.85;30.38;97533.53;5033489;28;20025;-27
2022/03/01 04:56:34;;;;;;;5.13;2.70;;;;;;;12.91;30.67;97523.69;5033436;28;20021;-28
2022/03/01 04:59:00;;;;;;;3.80;2.22;;;;;;;12.90;30.56;97524.88;5033477;28;20092;-28
2022/03/01 05:01:26;;;;;;;7.03;2.50;;;;;;;12.87;30.23;97514.81;5033222;28;20053;-28
2022/03/01 05:03:51;;;;;;;3.58;2.13;;;;;;;12.55;30.73;97516.09;5033379;28;20117;-28
2022/03/01 05:06:17;;;;;;;4.93;2.60;;;;;;;12.71;30.93;97506.53;5033385;28;20033;-27
2022/03/01 05:08:42;;;;;;;4.82;2.67;;;;;;;12.65;30.56;97502.72;5033343;28;20555;-27
2022/03/01 05:11:08;;;;;;;5.60;2.70;;;;;;;12.68;30.76;97508.13;5033390;28;20108;-27
2022/03/01 05:13:35;;;;;;;4.53;2.40;;;;;;;12.79;30.47;97505.22;5033211;28;20026;-27
2022/03/01 05:16:01;;;;;;;3.78;2.17;;;;;;;12.65;30.78;97513.63;5033319;28;20031;-28
2022/03/01 05:18:26;;;;;;;4.55;2.20;;;;;;;12.72;30.39;97514.28;5034435;28;20096;-28
2022/03/01 05:20:52;;;;;;;3.33;2.08;;;;;;;12.79;30.61;97516.88;5037501;28;20017;-27
2022/03/01 05:23:18;;;;;;;5.45;2.65;;;;;;;12.83;30.28;97525.78;5034425;28;20459;-27
2022/03/01 05:25:44;;;;;;;5.22;2.20;;;;;;;12.80;30.39;97528.53;5026857;28;20036;-26
2022/03/01 05:28:10;;;;;;;4.40;2.55;;;;;;;12.72;30.73;97543.47;5034907;28;20021;-27
2022/03/01 05:30:36;;;;;;;4.10;1.80;;;;;;;12.71;30.65;97542.69;5035100;28;20025;-27
2022/03/01 05:33:02;;;;;;;5.03;2.50;;;;;;;12.51;30.92;97556.19;5035227;28;20055;-27
2022/03/01 05:35:31;;;;;;;5.03;2.58;;;;;;;12.67;30.40;97544.69;5033607;28;20029;-29
2022/03/01 05:37:57;;;;;;;4.82;2.60;;;;;;;12.68;30.59;97557.13;5033457;28;20021;-27
2022/03/01 05:40:26;;;;;;;4.28;2.60;;;;;;;12.70;30.83;97554.00;5035103;28;20725;-27
2022/03/01 05:42:52;;;;;;;6.43;2.67;;;;;;;12.68;30.73;97548.19;5034899;28;20021;-27
2022/03/01 05:45:19;;;;;;;4.13;2.47;;;;;;;12.70;30.72;97549.31;5034831;28;20075;-28
2022/03/01 05:47:46;;;;;;;5.55;3.28;;;;;;;12.77;30.32;97559.31;5034614;28;20496;-27
2022/03/01 05:50:13;;;;;;;8.30;3.50;;;;;;;12.79;30.33;97567.84;5034765;28;20053;-28
2022/03/01 05:52:40;;;;;;;5.60;3.25;;;;;;;12.77;30.52;97565.53;5034840;28;20040;-28
2022/03/01 05:55:08;;;;;;;6.65;3.10;;;;;;;12.69;30.58;97580.44;5034877;28;20025;-28
2022/03/01 05:57:34;;;;;;;5.15;2.80;;;;;;;12.74;30.24;97579.19;5033292;28;20064;-27
2022/03/01 06:00:00;;;;;;;4.43;2.50;;;;;;;12.79;30.03;97565.13;5033053;28;20108;-27
2022/03/01 06:02:25;;;;;;;4.68;2.90;;;;;;;12.82;30.61;97561.56;5034210;28;20147;-27
2022/03/01 06:04:52;;;;;;;4.75;2.78;;;;;;;12.82;30.21;97556.13;5034463;28;20037;-27
2022/03/01 06:07:18;;;;;;;6.28;2.92;;;;;;;12.69;30.25;97568.78;5034515;28;20033;-28
2022/03/01 06:09:44;;;;;;;5.70;3.17;;;;;;;12.81;30.36;97558.06;5034384;28;20112;-27
2022/03/01 06:12:10;;;;;;;5.43;3.00;;;;;;;12.83;30.04;97563.88;5034081;28;20119;-28
2022/03/01 06:14:35;;;;;;;4.35;2.58;;;;;;;12.80;29.82;97555.75;5034348;28;20060;-27
2022/03/01 06:17:01;;;;;;;4.05;3.15;;;;;;;12.83;30.28;97558.44;5034395;28;20040;-27
2022/03/01 06:19:26;;;;;;;5.68;3.00;;;;;;;12.84;29.85;97559.22;5034237;28;20060;-27
2022/03/01 06:21:53;;;;;;;3.92;2.42;;;;;;;12.80;29.69;97564.69;5034297;28;20033;-29
2022/03/01 06:24:19;;;;;;;6.90;2.90;;;;;;;12.77;29.81;97557.34;5033863;28;20029;-28
2022/03/01 06:26:45;;;;;;;5.15;2.75;;;;;;;12.75;30.22;97550.78;5034172;28;20060;-27
2022/03/01 06:29:11;;;;;;;3.40;2.55;;;;;;;12.66;29.91;97558.72;5034208;28;20424;-28
2022/03/01 06:31:36;;;;;;;5.28;2.35;;;;;;;12.73;29.98;97564.06;5032866;28;20031;-27
2022/03/01 06:34:02;;;;;;;4.72;2.58;;;;;;;12.75;29.89;97572.56;5033704;28;20025;-28
2022/03/01 06:36:28;;;;;;;4.03;2.47;;;;;;;12.76;29.69;97563.22;5032109;28;20029;-28
2022/03/01 06:38:54;;;;;;;3.75;2.28;;;;;;;12.70;29.79;97568.38;5033306;28;20071;-27
2022/03/01 06:41:20;;;;;;;3.60;2.15;;;;;;;12.74;29.89;97566.34;5033954;28;20534;-27
2022/03/01 06:43:46;;;;;;;6.50;2.40;;;;;;;12.75;29.59;97561.66;5033932;28;20359;-28
2022/03/01 06:46:13;;;;;;;4.93;2.72;;;;;;;12.51;29.95;97580.69;5033410;28;20021;-29
2022/03/01 06:48:39;;;;;;;6.00;2.63;;;;;;;12.62;29.79;97571.59;5033123;28;20025;-27
2022/03/01 06:51:07;;;;;;;5.32;2.58;;;;;;;12.70;29.73;97581.97;5033418;28;20469;-27
2022/03/01 06:53:34;;;;;;;4.18;2.40;;;;;;;12.67;29.96;97569.19;5031699;28;20065;-28
2022/03/01 06:56:00;;;;;;;7.38;3.67;;;;;;;12.70;29.70;97571.09;5033465;28;20029;-28
2022/03/01 06:58:25;;;;;;;3.92;2.53;;;;;;;12.75;29.60;97572.56;5033565;28;20029;-28
2022/03/01 07:00:51;;;;;;;4.80;2.95;;;;;;;12.79;29.34;97576.00;5032970;28;20412;-27
2022/03/01 07:03:17;;;;;;;4.75;2.50;;;;;;;12.82;29.39;97578.69;5033015;28;20505;-28
2022/03/01 07:05:44;;;;;;;6.35;3.05;;;;;;;12.68;29.75;97580.84;5033007;28;20029;-29
2022/03/01 07:08:10;;;;;;;5.30;3.00;;;;;;;12.73;29.16;97573.00;5031958;28;20091;-28
2022/03/01 07:10:36;;;;;;;5.15;3.30;;;;;;;12.67;29.76;97576.56;5033460;28;20108;-27
2022/03/01 07:13:02;;;;;;;5.93;2.78;;;;;;;12.73;29.58;97585.84;5033710;28;20438;-28
2022/03/01 07:15:27;;;;;;;5.70;3.25;;;;;;;12.80;29.68;97575.59;5034970;28;20033;-27
2022/03/01 07:17:53;;;;;;;5.03;3.20;;;;;;;12.82;29.35;97567.00;5034955;28;20355;-27
2022/03/01 07:20:19;;;;;;;6.35;3.22;;;;;;;12.66;29.31;97564.16;5035093;28;20018;-27
2022/03/01 07:22:44;;;;;;;5.40;3.22;;;;;;;12.75;29.58;97578.00;5034903;28;20082;-27
2022/03/01 07:25:10;;;;;;;7.43;3.63;;;;;;;12.61;29.93;97573.53;5033299;28;20128;-29
2022/03/01 07:27:43;;;;;;;8.60;3.58;;;;;;;12.68;29.73;97589.00;5034540;28;20053;-29
2022/03/01 07:30:09;;;;;;;9.32;3.42;;;;;;;12.40;30.07;97579.28;5034645;28;20026;-28
2022/03/01 07:32:35;;;;;;;6.13;3.20;;;;;;;12.34;29.84;97594.56;5034825;28;20374;-27
2022/03/01 07:35:00;;;;;;;8.52;3.90;;;;;;;12.51;29.53;97590.78;5034705;28;20028;-28
2022/03/01 07:37:26;;;;;;;6.55;3.40;;;;;;;12.52;29.61;97604.00;5034565;28;20500;-28
2022/03/01 07:39:55;;;;;;;6.18;3.30;;;;;;;12.64;29.64;97599.16;5033728;28;20026;-28
2022/03/01 07:42:21;;;;;;;8.98;3.80;;;;;;;12.62;29.69;97596.06;5034199;28;20347;-28
2022/03/01 07:44:46;;;;;;;8.07;3.97;;;;;;;12.59;29.52;97612.06;5034363;28;20048;-30
2022/03/01 07:47:12;;;;;;;8.27;4.25;;;;;;;12.70;29.91;97603.75;5034751;28;20446;-27
2022/03/01 07:49:38;;;;;;;8.38;4.10;;;;;;;12.68;29.80;97608.06;5034460;28;20028;-27
2022/03/01 07:52:04;;;;;;;7.15;3.60;;;;;;;12.40;30.02;97601.84;5034766;28;20060;-27
2022/03/01 07:54:29;;;;;;;5.55;3.33;;;;;;;12.47;29.65;97615.34;5034478;28;20029;-27
2022/03/01 07:56:55;;;;;;;6.65;3.42;;;;;;;12.55;30.02;97616.78;5034297;28;20029;-28
2022/03/01 07:59:20;;;;;;;6.65;3.72;;;;;;;12.50;29.77;97625.41;5034413;28;20021;-28
2022/03/01 08:01:46;;;;;;;6.53;3.90;;;;;;;12.58;29.95;97621.41;5034166;28;20073;-27
2022/03/01 08:04:12;;;;;;;5.97;3.60;;;;;;;12.53;29.91;97627.31;5034530;28;20094;-27
2022/03/01 08:06:37;;;;;;;6.15;4.05;;;;;;;12.66;29.74;97630.25;5034314;28;20493;-27
2022/03/01 08:09:03;;;;;;;8.45;3.70;;;;;;;12.30;30.19;97646.28;5034069;28;20029;-27
2022/03/01 08:11:28;;;;;;;5.82;3.30;;;;;;;12.49;30.28;97640.19;5033737;28;20075;-28
2022/03/01 08:13:54;;;;;;;5.78;2.83;;;;;;;12.45;30.03;97634.03;5033762;28;20036;-27
2022/03/01 08:16:20;;;;;;;5.88;3.40;;;;;;;12.59;30.12;97641.25;5031197;28;20079;-28
2022/03/01 08:18:45;;;;;;;4.65;2.90;;;;;;;12.56;29.96;97644.78;5033513;28;20017;-27
2022/03/01 08:21:12;;;;;;;3.50;2.63;;;;;;;12.64;29.60;97646.19;5033661;28;20071;-27
2022/03/01 08:23:38;;;;;;;5.82;3.15;;;;;;;12.53;29.89;97648.31;5033398;28;20021;-27
2022/03/01 08:26:04;;;;;;;4.85;2.63;;;;;;;12.66;29.72;97646.56;5033537;28;20382;-29
2022/03/01 08:28:31;;;;;;;4.60;2.60;;;;;;;12.72;30.01;97649.63;5033437;28;20017;-27
2022/03/01 08:30:56;;;;;;;4.20;2.55;;;;;;;12.68;29.99;97651.59;5033616;28;20510;-27
2022/03/01 08:33:24;;;;;;;4.78;2.53;;;;;;;12.80;29.71;97642.88;5033126;28;20274;-27
2022/03/01 08:35:50;;;;;;;3.47;2.25;;;;;;;12.73;29.68;97654.66;5031884;28;20100;-27
2022/03/01 08:38:16;;;;;;;6.25;2.92;;;;;;;12.76;30.07;97650.31;5033329;28;20032;-27
2022/03/01 08:40:42;;;;;;;5.03;2.80;;;;;;;12.17;30.83;97647.97;5033862;28;20017;-27
2022/03/01 08:43:09;;;;;;;3.72;2.47;;;;;;;12.40;30.52;97645.34;5033548;28;20112;-27
2022/03/01 08:45:34;;;;;;;4.57;2.70;;;;;;;12.52;30.47;97658.41;5033550;28;20044;-28
2022/03/01 08:48:00;;;;;;;4.85;2.50;;;;;;;12.74;30.19;97650.72;5033628;28;20465;-29
2022/03/01 08:50:26;;;;;;;4.85;2.60;;;;;;;12.54;30.44;97644.41;5033410;28;20022;-27
2022/03/01 08:52:52;;;;;;;5.85;2.50;;;;;;;12.69;30.04;97659.38;5032798;28;20021;-27
2022/03/01 08:55:18;;;;;;;4.35;2.60;;;;;;;12.70;30.25;97657.41;5033017;28;20025;-27
2022/03/01 08:57:44;;;;;;;4.80;2.33;;;;;;;12.73;30.34;97664.78;5033060;28;20029;-27
2022/03/01 09:00:12;;;;;;;4.78;2.63;;;;;;;12.62;30.34;97678.50;5033493;28;20026;-27
2022/03/01 09:02:38;;;;;;;3.78;2.55;;;;;;;12.64;30.23;97662.53;5033398;28;20041;-27
2022/03/01 09:05:07;;;;;;;3.78;2.53;;;;;;;12.39;30.47;97665.56;5033410;28;20108;-28
2022/03/01 09:07:33;;;;;;;6.00;2.35;;;;;;;12.64;30.41;97650.88;5033227;28;20164;-27
2022/03/01 09:09:59;;;;;;;3.40;2.42;;;;;;;12.74;30.28;97645.28;5033264;28;20029;-27
2022/03/01 09:12:26;;;;;;;4.93;2.38;;;;;;;12.87;29.84;97646.25;5031420;28;20025;-27
2022/03/01 09:14:51;;;;;;;7.93;2.70;;;;;;;12.74;30.51;97648.00;5031253;28;20056;-27
2022/03/01 09:17:17;;;;;;;4.18;2.72;;;;;;;12.57;30.72;97638.16;5032832;28;20107;-28
2022/03/01 09:19:43;;;;;;;5.70;2.63;;;;;;;12.51;31.08;97639.78;5032262;28;20037;-27
2022/03/01 09:22:09;;;;;;;5.65;2.45;;;;;;;12.50;30.56;97628.13;5033235;28;20034;-28
2022/03/01 09:24:35;;;;;;;3.00;1.98;;;;;;;12.54;30.95;97639.72;5033215;28;20029;-28
2022/03/01 09:27:01;;;;;;;3.78;2.20;;;;;;;12.42;30.82;97640.28;5033005;28;20111;-27
2022/03/01 09:29:28;;;;;;;3.40;2.45;;;;;;;12.34;31.02;97646.22;5033329;28;20037;-28
2022/03/01 09:31:54;;;;;;;2.80;2.22;;;;;;;11.90;31.39;97639.75;5033108;28;20021;-27
2022/03/01 09:34:20;;;;;;;3.90;2.13;;;;;;;12.37;31.02;97653.56;5033258;28;20021;-28
2022/03/01 09:36:46;;;;;;;5.57;2.67;;;;;;;12.62;30.62;97651.28;5033499;28;20369;-28
2022/03/01 09:39:11;;;;;;;4.85;2.20;;;;;;;12.64;30.49;97657.09;5033002;28;20390;-27
2022/03/01 09:41:38;;;;;;;5.82;2.28;;;;;;;12.44;31.27;97645.31;5032903;28;20075;-28
2022/03/01 09:44:04;;;;;;;3.97;2.20;;;;;;;11.71;32.07;97648.47;5033277;28;20029;-27
2022/03/01 09:46:31;;;;;;;3.78;2.40;;;;;;;12.28;31.35;97645.91;5033003;28;20025;-27
2022/03/01 09:48:57;;;;;;;4.25;2.25;;;;;;;12.17;31.21;97653.44;5033197;28;20029;-27
2022/03/01 09:51:23;;;;;;;3.03;2.03;;;;;;;12.52;30.72;97652.97;5032924;28;20502;-27
2022/03/01 09:53:50;;;;;;;2.92;2.25;;;;;;;12.66;30.62;97648.53;5031725;28;20029;-27
2022/03/01 09:56:18;;;;;;;3.95;2.25;;;;;;;12.68;30.83;97660.53;5031702;28;20029;-28
2022/03/01 09:58:50;;;;;;;3.80;2.20;;;;;;;12.59;30.79;97658.34;5033039;28;20127;-27
2022/03/01 10:01:17;;;;;;;5.55;2.83;;;;;;;12.76;30.68;97653.03;5032628;28;20048;-28
2022/03/01 10:03:51;;;;;;;4.70;2.20;;;;;;;12.75;30.86;97660.44;5032706;28;20108;-27
2022/03/01 10:06:20;;;;;;;3.55;2.10;;;;;;;12.30;31.44;97657.16;5035189;28;20030;-27
2022/03/01 10:08:52;;;;;;;5.20;2.90;;;;;;;12.52;31.17;97674.75;5036232;28;20098;-27
2022/03/01 10:11:18;;;;;;;4.18;2.40;;;;;;;12.36;31.53;97660.97;5040489;28;20025;-28
2022/03/01 10:13:44;;;;;;;2.83;1.88;;;;;;;12.14;31.81;97663.16;5035049;28;20053;-27
2022/03/01 10:16:14;;;;;;;4.07;2.20;;;;;;;12.55;31.48;97665.00;5036740;28;20123;-27
2022/03/01 10:18:42;;;;;;;3.90;2.45;;;;;;;12.76;31.07;97655.75;5036095;28;20159;-27
2022/03/01 10:21:12;;;;;;;3.08;1.75;;;;;;;12.74;30.56;97674.44;5036249;28;20428;-27
2022/03/01 10:23:44;;;;;;;4.53;2.70;;;;;;;12.68;30.99;97665.22;5036208;28;20451;-27
2022/03/01 10:26:14;;;;;;;4.43;2.42;;;;;;;12.62;31.09;97667.59;5036365;28;20025;-27
2022/03/01 10:28:41;;;;;;;3.05;2.15;;;;;;;12.76;30.99;97667.41;5036097;28;20044;-27
2022/03/01 10:31:17;;;;;;;4.30;2.47;;;;;;;12.65;31.19;97660.59;5035934;28;20030;-27
2022/03/01 10:34:14;;;;;;;3.83;2.50;;;;;;;12.70;31.23;97660.13;5035966;28;20126;-27
2022/03/01 10:36:49;;;;;;;3.72;2.45;;;;;;;12.63;31.11;97663.72;5035485;28;20033;-27
2022/03/01 10:39:34;;;;;;;4.60;2.70;;;;;;;12.52;31.39;97665.81;5035896;28;20022;-27
2022/03/01 10:42:03;;;;;;;4.47;2.60;;;;;;;12.72;30.80;97671.38;5035792;28;20497;-27
2022/03/01 10:44:30;;;;;;;4.65;2.72;;;;;;;12.76;31.16;97672.09;5035822;28;20159;-27
2022/03/01 10:46:59;;;;;;;5.72;2.70;;;;;;;12.89;30.63;97664.91;5035857;28;20025;-27
2022/03/01 10:49:27;;;;;;;4.97;2.60;;;;;;;12.65;31.39;97674.19;5035861;28;20108;-27
2022/03/01 10:51:55;;;;;;;4.35;2.65;;;;;;;12.71;30.71;97670.63;5035496;28;20101;-27
2022/03/01 10:54:39;;;;;;;7.47;2.95;;;;;;;12.60;31.01;97661.84;5035711;28;20032;-29
2022/03/01 10:57:09;;;;;;;4.93;2.63;;;;;;;12.67;31.11;97652.78;5035765;28;20021;-27
2022/03/01 10:59:37;;;;;;;4.65;2.50;;;;;;;12.71;30.92;97657.00;5035633;28;20033;-27
2022/03/01 11:02:04;;;;;;;5.00;2.88;;;;;;;12.59;31.28;97642.00;5035222;28;20219;-27
2022/03/01 11:04:29;;;;;;;3.00;2.42;;;;;;;11.96;31.53;97642.81;5035505;28;20083;-27
2022/03/01 11:06:58;;;;;;;3.72;2.80;;;;;;;12.49;31.54;97642.13;5035283;28;20371;-27
2022/03/01 11:09:25;;;;;;;3.42;2.42;;;;;;;12.38;31.41;97634.09;5035481;28;20021;-28
2022/03/01 11:11:52;;;;;;;4.57;2.70;;;;;;;12.68;31.03;97630.59;5035258;28;20085;-29
2022/03/01 11:14:24;;;;;;;5.07;2.83;;;;;;;12.54;31.21;97642.44;5035285;28;20034;-27
2022/03/01 11:17:23;;;;;;;4.43;2.70;;;;;;;12.42;31.57;97634.84;5035068;28;20080;-28
2022/03/01 11:20:06;;;;;;;5.20;2.78;;;;;;;12.79;30.61;97627.72;5024757;28;20490;-27
2022/03/01 11:22:57;;;;;;;3.88;2.70;;;;;;;12.46;31.58;97629.38;5035225;28;20025;-27
2022/03/01 11:25:25;;;;;;;4.30;2.50;;;;;;;12.36;31.47;97614.72;5035062;28;20036;-29
2022/03/01 11:28:11;;;;;;;3.90;2.30;;;;;;;12.63;31.61;97620.16;5034812;28;20124;-28
2022/03/01 11:30:38;;;;;;;5.05;2.58;;;;;;;12.93;30.89;97616.63;5035038;28;20362;-27
2022/03/01 11:33:08;;;;;;;4.40;2.53;;;;;;;12.15;32.16;97621.19;5035141;28;20430;-28
2022/03/01 11:35:36;;;;;;;3.83;2.75;;;;;;;12.39;31.65;97622.06;5034866;28;20033;-27